Time;durP1;ratioP1;P1;durP2;ratioP2;P2;SDS_P1;SDS_P2;PMS_P1;PMS_P2;Temp;Humidity;BMP_temperature;BMP_pressure;BME280_temperature;BME280_humidity;BME280_pressure;Samples;Min_cycle;Max_cycle;Signal;HPM_P1;HPM_P2
2023/04/07 00:01:16;;;;;;;335.20;244.32;;;;;;;22.99;40.07;101797.78;5054175;28;20025;-55
2023/04/07 00:03:45;;;;;;;337.52;246.98;;;;;;;22.90;39.97;101793.16;5054024;28;20095;-53
2023/04/07 00:06:13;;;;;;;344.52;249.77;;;;;;;22.96;39.93;101792.44;5052723;28;20033;-52
2023/04/07 00:08:42;;;;;;;353.02;250.80;;;;;;;23.03;39.90;101789.19;5053949;28;20024;-48
2023/04/07 00:11:10;;;;;;;368.85;259.98;;;;;;;23.15;39.33;101800.84;5054094;28;20017;-50
2023/04/07 00:13:39;;;;;;;336.65;244.75;;;;;;;23.00;39.50;101793.44;5053847;28;20032;-53
2023/04/07 00:16:08;;;;;;;376.30;262.83;;;;;;;23.14;40.05;101791.22;5053713;28;20057;-52
2023/04/07 00:18:36;;;;;;;355.52;257.40;;;;;;;23.11;40.02;101789.41;5052555;28;20131;-48
2023/04/07 00:21:05;;;;;;;351.90;257.88;;;;;;;23.18;39.71;101780.88;5052559;28;20039;-47
2023/04/07 00:23:34;;;;;;;354.33;253.57;;;;;;;23.06;39.84;101780.53;5053807;28;20035;-54
2023/04/07 00:26:02;;;;;;;359.08;260.42;;;;;;;22.96;40.15;101789.84;5053530;28;20025;-54
2023/04/07 00:28:31;;;;;;;341.92;251.52;;;;;;;23.03;39.74;101786.56;5053725;28;20086;-53
2023/04/07 00:31:00;;;;;;;364.95;256.05;;;;;;;23.18;39.68;101788.75;5053795;28;20083;-46
2023/04/07 00:33:28;;;;;;;365.02;255.77;;;;;;;23.01;40.01;101790.88;5053242;28;20037;-51
2023/04/07 00:35:57;;;;;;;357.40;260.30;;;;;;;23.12;39.82;101788.56;5053669;28;20104;-53
2023/04/07 00:38:26;;;;;;;352.00;256.15;;;;;;;23.13;39.97;101787.72;5053449;28;20021;-45
2023/04/07 00:40:58;;;;;;;348.92;251.80;;;;;;;23.16;39.53;101789.53;5053572;28;20068;-54
2023/04/07 00:43:27;;;;;;;356.40;253.73;;;;;;;23.09;39.61;101793.72;5053468;28;20028;-54
2023/04/07 00:45:55;;;;;;;343.20;255.35;;;;;;;22.98;40.19;101782.03;5052133;28;20044;-51
2023/04/07 00:48:24;;;;;;;359.50;256.08;;;;;;;23.22;39.63;101808.09;5052148;28;20550;-48
2023/04/07 00:50:53;;;;;;;355.02;260.88;;;;;;;23.00;39.89;101809.16;5052598;28;20045;-55
2023/04/07 00:53:22;;;;;;;363.25;259.98;;;;;;;22.91;40.37;101804.53;5053245;28;20104;-54
2023/04/07 00:55:50;;;;;;;355.55;252.88;;;;;;;22.92;40.27;101801.03;5053249;28;20029;-53
2023/04/07 00:58:19;;;;;;;356.65;253.70;;;;;;;23.04;39.87;101804.06;5052567;28;20033;-53
2023/04/07 01:01:01;;;;;;;369.95;262.27;;;;;;;22.99;40.04;101810.88;5052704;28;20379;-54
2023/04/07 01:03:34;;;;;;;345.33;252.68;;;;;;;22.87;40.44;101810.50;5051736;28;20032;-52
2023/04/07 01:06:03;;;;;;;355.98;259.65;;;;;;;23.00;39.91;101815.25;5052185;28;20478;-54
2023/04/07 01:08:45;;;;;;;360.40;258.17;;;;;;;22.99;40.34;101813.47;5051879;28;20021;-46
2023/04/07 01:11:36;;;;;;;349.33;254.40;;;;;;;22.91;40.23;101815.88;5053361;28;20399;-53
2023/04/07 01:14:05;;;;;;;360.75;261.33;;;;;;;22.92;40.43;101822.88;5048867;28;20316;-51
2023/04/07 01:16:47;;;;;;;356.05;255.43;;;;;;;23.00;40.04;101815.25;5051849;28;20025;-46
2023/04/07 01:19:27;;;;;;;356.77;250.13;;;;;;;22.98;40.30;101809.09;5052303;28;20045;-45
2023/04/07 01:21:57;;;;;;;356.85;258.27;;;;;;;23.11;39.57;101807.75;5051322;28;20508;-47
2023/04/07 01:24:45;;;;;;;352.52;251.38;;;;;;;23.02;40.36;101804.81;5052609;28;20108;-46
2023/04/07 01:27:34;;;;;;;356.50;250.63;;;;;;;23.01;39.92;101805.66;5049177;28;20037;-50
2023/04/07 01:30:04;;;;;;;364.38;258.60;;;;;;;22.80;40.55;101804.19;5051811;28;20528;-53
2023/04/07 01:32:33;;;;;;;353.90;258.02;;;;;;;22.78;40.67;101800.63;5052914;28;20485;-47
2023/04/07 01:35:03;;;;;;;360.77;255.00;;;;;;;22.97;40.11;101799.47;5051459;28;20032;-49
2023/04/07 01:37:32;;;;;;;354.30;254.88;;;;;;;22.86;40.51;101798.25;5051232;28;20033;-51
2023/04/07 01:40:00;;;;;;;356.50;257.15;;;;;;;22.99;40.31;101803.00;5051506;28;20056;-47
2023/04/07 01:42:29;;;;;;;360.17;257.33;;;;;;;23.01;39.88;101800.44;5051039;28;20029;-54
2023/04/07 01:44:58;;;;;;;334.60;245.32;;;;;;;22.83;40.36;101790.31;5052581;28;20036;-52
2023/04/07 01:47:29;;;;;;;354.48;256.33;;;;;;;22.80;40.44;101785.88;5051271;28;20108;-52
2023/04/07 01:49:59;;;;;;;359.55;257.38;;;;;;;22.89;39.98;101794.00;5052274;28;20032;-45
2023/04/07 01:52:29;;;;;;;357.52;253.80;;;;;;;23.00;39.61;101790.84;5051223;28;20104;-53
2023/04/07 01:54:58;;;;;;;357.48;257.23;;;;;;;22.96;39.87;101784.59;5051158;28;20040;-52
2023/04/07 01:57:26;;;;;;;373.73;260.90;;;;;;;22.86;40.42;101787.78;5052487;28;20033;-54
2023/04/07 01:59:55;;;;;;;355.70;253.95;;;;;;;22.94;39.75;101783.66;5052243;28;20025;-54
2023/04/07 02:02:23;;;;;;;352.88;252.68;;;;;;;22.85;39.72;101765.09;5052556;28;20446;-53
2023/04/07 02:04:57;;;;;;;369.95;262.27;;;;;;;22.98;40.06;101782.03;5052064;28;20028;-51
2023/04/07 02:07:35;;;;;;;358.90;257.23;;;;;;;23.08;39.74;101784.09;5052445;28;20032;-50
2023/04/07 02:10:04;;;;;;;363.05;258.08;;;;;;;22.92;39.94;101780.09;5051168;28;20098;-45
2023/04/07 02:12:33;;;;;;;364.40;258.73;;;;;;;22.91;39.95;101773.13;5052409;28;20040;-45
2023/04/07 02:15:02;;;;;;;359.52;256.08;;;;;;;23.01;39.86;101787.34;5054802;28;20371;-46
2023/04/07 02:17:32;;;;;;;360.00;257.25;;;;;;;23.08;39.66;101781.47;5054408;28;20045;-51
2023/04/07 02:20:01;;;;;;;350.02;253.10;;;;;;;23.00;39.32;101777.75;5054673;28;20120;-53
2023/04/07 02:22:30;;;;;;;343.98;247.45;;;;;;;22.85;40.18;101779.03;5056070;28;20021;-45
2023/04/07 02:24:59;;;;;;;345.02;250.00;;;;;;;22.86;39.88;101774.69;5054970;28;20036;-54
2023/04/07 02:27:28;;;;;;;368.80;257.85;;;;;;;22.82;39.95;101778.06;5055991;28;20021;-50
2023/04/07 02:29:56;;;;;;;353.92;252.70;;;;;;;22.76;39.90;101777.03;5056041;28;20029;-54
2023/04/07 02:32:25;;;;;;;342.40;246.50;;;;;;;22.70;40.09;101774.25;5055958;28;20429;-51
2023/04/07 02:34:54;;;;;;;351.45;254.80;;;;;;;22.77;40.02;101776.19;5055597;28;20033;-52
2023/04/07 02:37:23;;;;;;;364.20;254.57;;;;;;;22.70;40.30;101789.94;5055719;28;20039;-52
2023/04/07 02:39:51;;;;;;;352.65;254.00;;;;;;;22.61;40.56;101776.53;5055164;28;20052;-45
2023/04/07 02:42:20;;;;;;;357.38;256.17;;;;;;;22.55;40.77;101782.47;5055437;28;20029;-45
2023/04/07 02:44:49;;;;;;;351.55;249.90;;;;;;;22.44;40.51;101776.03;5055746;28;20094;-53
2023/04/07 02:47:17;;;;;;;355.08;259.77;;;;;;;22.60;40.66;101783.53;5055696;28;20033;-48
2023/04/07 02:49:46;;;;;;;348.25;253.52;;;;;;;22.72;40.20;101774.28;5055849;28;20017;-55
2023/04/07 02:52:15;;;;;;;350.42;247.70;;;;;;;22.88;39.82;101768.66;5055557;28;20033;-54
2023/04/07 02:54:43;;;;;;;349.00;245.85;;;;;;;22.73;39.94;101762.97;5055607;28;20025;-50
2023/04/07 02:57:12;;;;;;;345.27;245.55;;;;;;;22.69;39.77;101758.47;5055257;28;20441;-54
2023/04/07 02:59:41;;;;;;;340.40;239.65;;;;;;;22.67;40.26;101758.44;5055598;28;20024;-53
2023/04/07 03:02:10;;;;;;;348.52;252.20;;;;;;;22.78;40.17;101750.94;5055293;28;20083;-45
2023/04/07 03:04:39;;;;;;;357.05;256.42;;;;;;;22.79;40.11;101762.25;5054141;28;20033;-54
2023/04/07 03:07:07;;;;;;;360.95;252.43;;;;;;;22.78;40.15;101753.53;5055124;28;20025;-45
2023/04/07 03:09:36;;;;;;;357.08;253.82;;;;;;;22.62;40.24;101757.41;5055394;28;20033;-45
2023/04/07 03:12:05;;;;;;;341.77;244.90;;;;;;;22.63;40.27;101756.56;5055309;28;20037;-45
2023/04/07 03:14:33;;;;;;;359.25;248.15;;;;;;;22.57;40.05;101759.00;5054437;28;20116;-47
2023/04/07 03:17:02;;;;;;;343.67;243.95;;;;;;;22.53;39.95;101760.59;5055155;28;20028;-49
2023/04/07 03:19:31;;;;;;;351.63;246.80;;;;;;;22.50;40.44;101755.31;5054845;28;20063;-50
2023/04/07 03:21:59;;;;;;;354.10;254.25;;;;;;;22.46;40.59;101756.03;5055205;28;20475;-53
2023/04/07 03:24:28;;;;;;;370.08;264.85;;;;;;;22.43;40.79;101751.59;5054426;28;20081;-51
2023/04/07 03:26:56;;;;;;;356.98;249.02;;;;;;;22.34;40.49;101753.00;5054643;28;20391;-47
2023/04/07 03:29:25;;;;;;;353.45;246.82;;;;;;;22.22;40.60;101751.75;5054923;28;20032;-56
2023/04/07 03:31:54;;;;;;;358.85;251.82;;;;;;;22.36;40.42;101752.22;5054514;28;20025;-47
2023/04/07 03:34:22;;;;;;;348.52;244.50;;;;;;;22.49;40.21;101750.91;5054335;28;20052;-54
2023/04/07 03:36:51;;;;;;;358.58;253.57;;;;;;;22.50;40.29;101749.19;5054525;28;20032;-53
2023/04/07 03:39:20;;;;;;;350.92;255.23;;;;;;;22.38;40.24;101744.41;5054938;28;20478;-54
2023/04/07 03:41:48;;;;;;;366.38;259.88;;;;;;;22.30;40.81;101747.69;5054573;28;20025;-55
2023/04/07 03:44:17;;;;;;;346.90;244.65;;;;;;;22.44;40.14;101758.59;5054293;28;20033;-55
2023/04/07 03:46:47;;;;;;;347.95;249.52;;;;;;;22.55;40.06;101750.22;5054556;28;20432;-45
2023/04/07 03:49:15;;;;;;;355.88;250.50;;;;;;;22.45;40.19;101754.28;5054026;28;20112;-53
2023/04/07 03:51:44;;;;;;;348.42;247.40;;;;;;;22.46;40.12;101758.66;5054964;28;20394;-51
2023/04/07 03:54:13;;;;;;;355.17;251.43;;;;;;;22.42;40.14;101754.16;5054416;28;20477;-49
2023/04/07 03:56:41;;;;;;;348.35;244.73;;;;;;;22.48;40.38;101770.06;5053976;28;20025;-52
2023/04/07 03:59:10;;;;;;;346.85;245.07;;;;;;;22.51;40.24;101762.28;5053247;28;20046;-55
2023/04/07 04:01:38;;;;;;;347.45;248.80;;;;;;;22.40;40.33;101751.47;5054585;28;20033;-52
2023/04/07 04:04:06;;;;;;;357.33;249.75;;;;;;;22.47;39.91;101755.22;5054141;28;20107;-54
2023/04/07 04:06:35;;;;;;;348.02;249.93;;;;;;;22.40;40.15;101754.09;5053920;28;20673;-45
2023/04/07 04:09:03;;;;;;;351.70;252.95;;;;;;;22.42;40.40;101748.94;5053783;28;20060;-52
2023/04/07 04:11:31;;;;;;;370.73;255.85;;;;;;;22.36;40.37;101751.31;5054055;28;20060;-52
2023/04/07 04:13:59;;;;;;;350.80;247.95;;;;;;;22.39;40.09;101757.53;5053864;28;20041;-54
2023/04/07 04:16:28;;;;;;;351.92;254.00;;;;;;;22.47;39.93;101755.22;5053737;28;20409;-48
2023/04/07 04:18:57;;;;;;;349.20;252.57;;;;;;;22.43;40.09;101754.19;5053272;28;20045;-49
2023/04/07 04:21:26;;;;;;;350.95;250.18;;;;;;;22.26;40.47;101744.88;5053960;28;20027;-55
2023/04/07 04:23:54;;;;;;;360.60;255.88;;;;;;;22.46;39.99;101750.81;5054035;28;20044;-52
2023/04/07 04:26:24;;;;;;;353.90;247.70;;;;;;;22.59;39.49;101754.69;5053928;28;20021;-51
2023/04/07 04:28:53;;;;;;;355.08;243.95;;;;;;;22.50;39.94;101744.84;5052248;28;20025;-54
2023/04/07 04:31:22;;;;;;;349.42;248.38;;;;;;;22.26;40.43;101744.88;5053264;28;20029;-50
2023/04/07 04:33:51;;;;;;;369.02;258.73;;;;;;;22.26;40.21;101751.03;5053865;28;20112;-51
2023/04/07 04:36:19;;;;;;;362.55;252.90;;;;;;;22.50;39.84;101751.78;5052743;28;20513;-52
2023/04/07 04:38:48;;;;;;;341.73;242.93;;;;;;;22.43;40.04;101753.31;5053561;28;20124;-51
2023/04/07 04:41:17;;;;;;;335.50;241.30;;;;;;;22.44;40.03;101755.97;5053038;28;20095;-55
2023/04/07 04:43:45;;;;;;;355.05;252.02;;;;;;;22.41;40.01;101762.81;5053439;28;20082;-54
2023/04/07 04:46:14;;;;;;;336.33;240.57;;;;;;;22.44;39.84;101755.09;5053815;28;20479;-49
2023/04/07 04:48:42;;;;;;;352.23;249.88;;;;;;;22.46;39.56;101754.31;5053194;28;20025;-46
2023/04/07 04:51:11;;;;;;;347.42;244.45;;;;;;;22.48;39.67;101754.38;5053680;28;20028;-53
2023/04/07 04:53:39;;;;;;;332.83;235.68;;;;;;;22.30;40.19;101755.53;5053270;28;20029;-54
2023/04/07 04:56:09;;;;;;;364.33;252.32;;;;;;;22.35;40.03;101752.13;5053276;28;20021;-45
2023/04/07 04:58:39;;;;;;;359.35;247.88;;;;;;;22.46;39.76;101756.03;5052985;28;20025;-54
2023/04/07 05:01:07;;;;;;;342.88;242.40;;;;;;;22.49;39.53;101757.84;5051902;28;20032;-51
2023/04/07 05:03:36;;;;;;;337.92;239.27;;;;;;;22.52;39.46;101763.19;5053191;28;20036;-45
2023/04/07 05:06:05;;;;;;;347.95;243.43;;;;;;;22.52;39.32;101758.84;5051836;28;20395;-48
2023/04/07 05:08:34;;;;;;;332.88;241.30;;;;;;;22.55;39.44;101747.59;5053297;28;20025;-50
2023/04/07 05:11:02;;;;;;;336.38;239.30;;;;;;;22.45;39.60;101759.50;5051832;28;20116;-52
2023/04/07 05:13:31;;;;;;;352.95;238.68;;;;;;;22.48;39.39;101764.84;5052917;28;20458;-45
2023/04/07 05:16:00;;;;;;;335.35;237.43;;;;;;;22.36;40.02;101759.16;5053370;28;20035;-48
2023/04/07 05:18:28;;;;;;;345.17;242.75;;;;;;;22.38;39.72;101755.78;5052937;28;20049;-52
2023/04/07 05:20:57;;;;;;;351.40;244.35;;;;;;;22.43;39.96;101754.19;5052946;28;20028;-48
2023/04/07 05:23:25;;;;;;;329.45;234.50;;;;;;;22.44;39.78;101753.38;5052976;28;20498;-52
2023/04/07 05:25:54;;;;;;;326.48;231.60;;;;;;;22.44;39.22;101747.25;5052674;28;20029;-45
2023/04/07 05:28:24;;;;;;;333.23;239.32;;;;;;;22.39;39.39;101757.53;5052558;28;20085;-46
2023/04/07 05:30:52;;;;;;;335.25;231.75;;;;;;;22.21;39.48;101744.75;5053065;28;20037;-52
2023/04/07 05:33:22;;;;;;;343.35;240.40;;;;;;;22.31;39.55;101741.63;5052483;28;20025;-51
2023/04/07 05:35:51;;;;;;;339.63;232.15;;;;;;;22.36;39.74;101744.38;5052779;28;20025;-53
2023/04/07 05:38:19;;;;;;;320.98;225.55;;;;;;;22.46;39.65;101756.03;5052721;28;20025;-49
2023/04/07 05:40:48;;;;;;;331.50;231.35;;;;;;;22.42;39.43;101754.16;5052690;28;20025;-52
2023/04/07 05:43:16;;;;;;;334.20;233.55;;;;;;;22.36;39.78;101756.53;5052427;28;20037;-51
2023/04/07 05:45:45;;;;;;;328.75;229.10;;;;;;;22.39;39.73;101754.03;5052356;28;20082;-54
2023/04/07 05:48:13;;;;;;;332.75;232.05;;;;;;;22.38;39.77;101747.91;5056837;28;20035;-49
2023/04/07 05:50:43;;;;;;;329.67;231.57;;;;;;;22.26;39.73;101747.50;5056707;28;20025;-52
2023/04/07 05:53:11;;;;;;;329.65;229.98;;;;;;;22.30;39.50;101749.38;5056567;28;20028;-54
2023/04/07 05:55:42;;;;;;;312.40;222.95;;;;;;;22.22;39.74;101746.53;5039027;28;20036;-56
2023/04/07 05:58:11;;;;;;;314.52;223.27;;;;;;;22.27;39.57;101744.97;5056170;28;20393;-54
2023/04/07 06:00:41;;;;;;;318.83;226.77;;;;;;;22.33;39.53;101751.22;5056735;28;20099;-55
2023/04/07 06:03:09;;;;;;;321.33;231.13;;;;;;;22.35;39.60;101749.53;5056914;28;20033;-55
2023/04/07 06:05:42;;;;;;;321.05;229.95;;;;;;;22.40;39.50;101753.19;5056644;28;20029;-52
2023/04/07 06:08:10;;;;;;;315.42;220.27;;;;;;;22.35;39.46;101753.03;5055388;28;20029;-55
2023/04/07 06:10:40;;;;;;;311.92;225.00;;;;;;;22.40;39.51;101754.09;5054629;28;20039;-49
2023/04/07 06:13:08;;;;;;;332.00;233.93;;;;;;;22.41;39.81;101749.75;5056215;28;20047;-52
2023/04/07 06:15:37;;;;;;;323.15;226.98;;;;;;;22.48;39.64;101743.00;5055783;28;20102;-53
2023/04/07 06:18:06;;;;;;;332.45;230.65;;;;;;;22.49;39.62;101760.47;5055791;28;20091;-55
2023/04/07 06:20:35;;;;;;;328.25;223.13;;;;;;;22.52;39.30;101751.00;5056080;28;20071;-56
2023/04/07 06:23:03;;;;;;;333.45;224.98;;;;;;;22.51;39.38;101756.19;5056072;28;20029;-47
2023/04/07 06:25:32;;;;;;;339.50;229.43;;;;;;;22.54;39.29;101766.75;5055764;28;20097;-53
2023/04/07 06:28:00;;;;;;;323.98;227.02;;;;;;;22.54;39.60;101757.16;5071374;28;20040;-55
2023/04/07 06:30:29;;;;;;;310.00;221.07;;;;;;;22.57;39.67;101759.00;5076170;28;20048;-49
2023/04/07 06:32:58;;;;;;;325.75;225.80;;;;;;;22.60;39.58;101757.38;5075683;28;20062;-48
2023/04/07 06:35:26;;;;;;;326.63;229.32;;;;;;;22.54;40.33;101767.63;5075697;28;20532;-46
2023/04/07 06:37:55;;;;;;;334.48;230.15;;;;;;;22.61;40.12;101763.47;5075850;28;20027;-52
2023/04/07 06:40:24;;;;;;;315.48;222.77;;;;;;;22.62;40.52;101770.47;5075721;28;20036;-54
2023/04/07 06:42:53;;;;;;;313.17;224.13;;;;;;;22.69;40.21;101776.78;5075651;28;20486;-45
2023/04/07 06:45:22;;;;;;;333.35;228.88;;;;;;;22.69;40.41;101782.00;5075608;28;20447;-45
2023/04/07 06:47:51;;;;;;;333.55;233.98;;;;;;;22.72;41.01;101782.13;5075672;28;20016;-52
2023/04/07 06:50:21;;;;;;;330.42;232.52;;;;;;;22.74;41.21;101781.34;5075383;28;20477;-53
2023/04/07 06:52:50;;;;;;;341.15;231.55;;;;;;;22.80;41.29;101780.66;5075217;28;20496;-46
2023/04/07 06:55:19;;;;;;;331.52;230.18;;;;;;;22.84;41.15;101779.00;5075523;28;20454;-46
2023/04/07 06:57:48;;;;;;;330.05;230.00;;;;;;;22.82;40.96;101765.88;5074529;28;20036;-55
2023/04/07 07:00:16;;;;;;;331.58;228.77;;;;;;;22.94;40.95;101772.31;5075206;28;20028;-54
2023/04/07 07:02:45;;;;;;;329.80;227.68;;;;;;;22.97;41.27;101775.91;5073956;28;20031;-47
2023/04/07 07:05:14;;;;;;;326.63;231.45;;;;;;;23.02;40.98;101781.28;5075355;28;20028;-53
2023/04/07 07:07:42;;;;;;;331.02;230.63;;;;;;;23.04;41.47;101777.88;5075649;28;20033;-46
2023/04/07 07:10:11;;;;;;;319.98;223.65;;;;;;;23.10;40.90;101777.16;5075431;28;20496;-52
2023/04/07 07:12:38;;;;;;;315.30;220.52;;;;;;;23.15;40.88;101779.91;5064006;28;20398;-55
2023/04/07 07:15:06;;;;;;;325.05;223.30;;;;;;;23.18;41.09;101782.63;5043913;28;20139;-52
2023/04/07 07:17:33;;;;;;;314.92;226.40;;;;;;;23.23;41.18;101785.41;5042135;28;20076;-55
2023/04/07 07:20:01;;;;;;;323.50;232.98;;;;;;;23.17;41.41;101776.50;5045321;28;20039;-54
2023/04/07 07:22:29;;;;;;;327.77;233.90;;;;;;;23.29;40.90;101794.31;5046760;28;20025;-49
2023/04/07 07:24:58;;;;;;;335.60;231.10;;;;;;;23.34;41.42;101794.44;5042236;28;20037;-51
2023/04/07 07:27:27;;;;;;;322.88;230.60;;;;;;;23.36;41.51;101793.66;5045848;28;20078;-50
2023/04/07 07:29:55;;;;;;;340.20;229.68;;;;;;;23.42;41.14;101792.03;5040758;28;20116;-53
2023/04/07 07:32:22;;;;;;;338.25;234.05;;;;;;;23.41;41.42;101793.78;5044640;28;20044;-49
2023/04/07 07:34:50;;;;;;;321.02;230.25;;;;;;;23.47;41.46;101793.06;5042603;28;20036;-47
2023/04/07 07:37:17;;;;;;;334.95;229.50;;;;;;;23.51;41.45;101798.44;5040529;28;20033;-45
2023/04/07 07:39:45;;;;;;;333.63;227.25;;;;;;;23.51;41.13;101793.19;5034393;28;20071;-54
2023/04/07 07:42:14;;;;;;;326.63;222.35;;;;;;;23.59;41.18;101798.66;5033519;28;20394;-55
2023/04/07 07:44:43;;;;;;;314.17;220.27;;;;;;;23.56;41.15;101790.72;5034760;28;20103;-52
2023/04/07 07:47:11;;;;;;;321.35;217.15;;;;;;;23.59;40.82;101787.31;5033662;28;20027;-51
2023/04/07 13:21:31;;;;;;;241.32;158.45;;;;;;;21.52;44.88;101689.31;5118146;27;20140;-44
2023/04/07 13:23:58;;;;;;;206.95;143.23;;;;;;;22.21;42.95;101679.41;5091999;28;20032;-50
2023/04/07 13:26:25;;;;;;;178.90;121.25;;;;;;;22.71;41.33;101681.84;5107421;28;20035;-52
2023/04/07 13:28:52;;;;;;;201.50;131.57;;;;;;;22.99;40.96;101671.31;5072220;28;20033;-51
2023/04/07 13:31:22;;;;;;;180.52;121.15;;;;;;;23.28;39.96;101668.63;5090299;28;20024;-44
2023/04/07 13:33:50;;;;;;;185.80;120.38;;;;;;;23.51;38.88;101670.13;5089622;28;20074;-54
2023/04/07 13:36:18;;;;;;;170.52;113.55;;;;;;;23.78;38.38;101668.16;5089973;28;20154;-45
2023/04/07 13:38:45;;;;;;;163.90;106.57;;;;;;;23.82;37.91;101663.06;5085475;28;20028;-47
2023/04/07 13:41:12;;;;;;;164.27;108.72;;;;;;;23.84;38.38;101665.72;5077827;28;20025;-48
2023/04/07 13:43:40;;;;;;;148.32;97.15;;;;;;;23.78;38.11;101663.81;5080040;28;20463;-47
2023/04/07 13:46:08;;;;;;;145.50;93.53;;;;;;;23.76;37.59;101657.66;5078203;28;20409;-56
2023/04/07 13:48:36;;;;;;;133.60;88.30;;;;;;;23.70;36.79;101659.25;5078805;28;20033;-52
2023/04/07 13:51:04;;;;;;;135.15;87.60;;;;;;;23.59;37.58;101661.59;5083081;28;20032;-44
2023/04/07 13:53:33;;;;;;;137.35;88.35;;;;;;;23.52;37.32;101656.19;5079238;28;20021;-52
2023/04/07 13:56:02;;;;;;;117.53;73.20;;;;;;;23.35;37.01;101654.84;5082218;28;20486;-54
2023/04/07 13:58:31;;;;;;;133.95;88.15;;;;;;;23.28;37.71;101652.94;5080317;28;20053;-53
2023/04/07 14:00:59;;;;;;;115.68;73.30;;;;;;;23.15;37.23;101647.34;5080124;28;20032;-50
2023/04/07 14:03:28;;;;;;;130.48;88.20;;;;;;;23.13;37.87;101649.03;5078280;28;20024;-56
2023/04/07 14:06:00;;;;;;;109.13;70.78;;;;;;;23.14;36.64;101648.19;5079892;28;20028;-45
2023/04/07 14:08:27;;;;;;;136.23;89.47;;;;;;;23.15;37.79;101652.56;5077148;28;20033;-49
2023/04/07 14:10:55;;;;;;;126.35;78.95;;;;;;;23.21;37.09;101650.13;5080264;28;20024;-56
2023/04/07 14:13:24;;;;;;;108.60;71.07;;;;;;;23.17;36.74;101650.84;5084677;28;20508;-56
2023/04/07 14:15:53;;;;;;;101.75;68.20;;;;;;;23.00;36.22;101646.91;5075973;28;20462;-51
2023/04/07 14:18:22;;;;;;;122.15;84.30;;;;;;;23.00;37.52;101639.06;5076459;28;20040;-57
2023/04/07 14:20:50;;;;;;;121.97;80.47;;;;;;;23.08;36.74;101645.38;5079390;28;20056;-49
2023/04/07 14:23:18;;;;;;;97.32;67.88;;;;;;;23.00;36.60;101644.28;5077447;28;20024;-54
2023/04/07 14:25:46;;;;;;;105.18;67.38;;;;;;;23.04;36.55;101633.94;5078623;28;20390;-55
2023/04/07 14:28:15;;;;;;;117.53;76.72;;;;;;;23.00;36.67;101645.16;5060372;28;20025;-43
2023/04/07 14:30:43;;;;;;;95.43;62.40;;;;;;;22.89;36.75;101638.75;5076860;28;20100;-53
2023/04/07 14:33:12;;;;;;;121.85;80.15;;;;;;;22.99;36.93;101634.69;5065046;28;20393;-48
2023/04/07 14:35:40;;;;;;;94.28;62.28;;;;;;;22.92;37.02;101631.88;5063939;28;20040;-44
2023/04/07 14:38:08;;;;;;;106.38;68.25;;;;;;;23.01;36.85;101627.72;5065529;28;20081;-53
2023/04/07 14:40:37;;;;;;;89.35;59.35;;;;;;;23.08;36.08;101627.06;5046004;28;20025;-55
2023/04/07 14:43:06;;;;;;;96.10;62.17;;;;;;;23.00;36.46;101636.44;5066123;28;20496;-52
2023/04/07 14:45:34;;;;;;;95.10;63.42;;;;;;;23.09;36.07;101625.31;5063655;28;20029;-47
2023/04/07 14:48:03;;;;;;;90.60;61.22;;;;;;;23.08;36.68;101624.44;5062452;28;20086;-53
2023/04/07 14:50:33;;;;;;;88.03;59.63;;;;;;;23.05;36.25;101625.25;5058732;28;20551;-54
2023/04/07 14:53:02;;;;;;;79.88;52.05;;;;;;;23.03;35.90;101620.81;5055180;28;20064;-52
2023/04/07 14:55:30;;;;;;;80.22;55.47;;;;;;;23.01;35.91;101626.00;5055450;28;20029;-43
2023/04/07 14:57:59;;;;;;;85.85;56.15;;;;;;;22.96;35.82;101627.59;5055144;28;20032;-54
2023/04/07 15:00:28;;;;;;;86.82;58.53;;;;;;;22.89;36.49;101637.00;5054899;28;20036;-51
2023/04/07 15:02:56;;;;;;;84.57;53.70;;;;;;;22.76;36.51;101632.28;5054895;28;20032;-46
2023/04/07 15:05:27;;;;;;;78.07;51.60;;;;;;;22.65;36.31;101613.66;5055203;28;20107;-53
2023/04/07 15:07:56;;;;;;;78.90;51.45;;;;;;;22.76;36.19;101635.78;5055106;28;20035;-54
2023/04/07 15:10:25;;;;;;;81.43;50.15;;;;;;;22.85;35.95;101635.16;5055063;28;20477;-54
2023/04/07 15:12:54;;;;;;;89.28;56.60;;;;;;;23.05;35.46;101630.50;5054781;28;20029;-43
2023/04/07 15:15:24;;;;;;;80.50;54.45;;;;;;;23.20;35.41;101623.91;5054905;28;20029;-53
2023/04/07 15:17:53;;;;;;;83.20;56.17;;;;;;;23.34;35.11;101624.28;5054787;28;20029;-55
2023/04/07 15:20:21;;;;;;;81.75;51.33;;;;;;;23.14;34.79;101615.88;5054598;28;20098;-54
2023/04/07 15:22:50;;;;;;;85.13;56.75;;;;;;;23.15;35.52;101630.72;5054760;28;20060;-55
2023/04/07 15:25:19;;;;;;;79.15;53.72;;;;;;;23.12;35.02;101628.03;5037645;28;20032;-55
2023/04/07 15:27:47;;;;;;;72.53;46.47;;;;;;;23.01;34.96;101625.09;5054429;28;20521;-54
2023/04/07 15:30:16;;;;;;;99.53;65.53;;;;;;;22.93;36.12;101624.91;5054591;28;20036;-54
2023/04/07 15:33:03;;;;;;;86.57;60.83;;;;;;;23.00;36.07;101618.13;5054484;28;20040;-54
2023/04/07 15:35:32;;;;;;;90.82;53.33;;;;;;;23.03;35.20;101626.94;5054178;28;20036;-55
2023/04/07 15:38:01;;;;;;;89.00;55.05;;;;;;;23.01;35.28;101627.72;5054378;28;20098;-50
2023/04/07 15:40:30;;;;;;;74.32;48.88;;;;;;;22.86;35.36;101634.31;5054260;28;20029;-42
2023/04/07 15:42:58;;;;;;;78.03;49.33;;;;;;;22.91;35.58;101632.72;5053574;28;20504;-53
2023/04/07 15:45:27;;;;;;;65.88;45.00;;;;;;;22.82;35.31;101631.56;5036973;28;20048;-55
2023/04/07 15:47:56;;;;;;;71.28;45.10;;;;;;;22.87;35.59;101638.69;5054197;28;20055;-54
2023/04/07 15:50:26;;;;;;;66.65;43.42;;;;;;;22.83;34.88;101639.47;5054280;28;20040;-54
2023/04/07 15:52:55;;;;;;;61.85;39.75;;;;;;;22.77;35.34;101648.00;5036717;28;20032;-55
2023/04/07 15:55:23;;;;;;;63.45;40.25;;;;;;;22.75;35.78;101639.22;5036407;28;20029;-55
2023/04/07 15:57:52;;;;;;;62.97;40.47;;;;;;;22.73;36.05;101645.25;5054286;28;20028;-51
2023/04/07 16:00:21;;;;;;;58.90;35.28;;;;;;;22.64;35.44;101642.41;5053793;28;20029;-53
2023/04/07 16:02:49;;;;;;;55.28;35.65;;;;;;;22.50;35.70;101645.50;5053758;28;20425;-55
2023/04/07 16:05:18;;;;;;;51.10;32.70;;;;;;;22.33;35.94;101642.31;5053895;28;20391;-54
2023/04/07 16:07:45;;;;;;;48.22;31.50;;;;;;;22.29;36.26;101636.13;5054267;28;20381;-55
2023/04/07 16:10:14;;;;;;;54.03;35.20;;;;;;;22.36;36.40;101645.03;5054048;28;20035;-54
2023/04/07 16:12:42;;;;;;;50.38;31.80;;;;;;;22.29;36.04;101646.56;5036421;28;20124;-52
2023/04/07 16:15:11;;;;;;;52.50;32.15;;;;;;;22.16;36.41;101639.19;5035686;28;20493;-42
2023/04/07 16:17:40;;;;;;;53.03;33.33;;;;;;;22.35;36.57;101648.50;5053782;28;20394;-43
2023/04/07 16:20:13;;;;;;;48.40;30.65;;;;;;;22.43;35.78;101651.38;5023192;28;20050;-55
2023/04/07 16:22:42;;;;;;;42.78;28.67;;;;;;;22.43;35.87;101653.97;5014132;28;20030;-53
2023/04/07 16:25:12;;;;;;;47.20;30.55;;;;;;;22.54;35.86;101654.31;5012673;28;20044;-55
2023/04/07 16:27:40;;;;;;;50.95;34.17;;;;;;;22.55;36.13;101633.41;5013835;28;20037;-55
2023/04/07 16:30:09;;;;;;;44.75;28.70;;;;;;;22.56;35.64;101656.13;5013851;28;20557;-48
2023/04/07 16:32:38;;;;;;;54.55;34.03;;;;;;;22.66;35.65;101654.66;5013714;28;20038;-53
2023/04/07 16:35:07;;;;;;;56.75;36.80;;;;;;;22.66;35.82;101656.41;5013627;28;20105;-54
2023/04/07 16:37:36;;;;;;;42.20;26.38;;;;;;;22.53;34.92;101648.19;5012596;28;20022;-54